Aeroporto :
LOGIN :

Iscrizione | Disclaimer

   EN    FR    IT 

 










Sommario :    VFR   VFR Marginale   IFR   IFR Intensivo   IFR Molto Intensivo
Visibilità : 
Base nubi : 
>= 8 km
>= 3000ft
5 / 8 km
1000 / 3000 ft
1500m / 5 km
500 / 1000 ft
800 / 1500m
200 / 500 ft
< 800m
< 200 ft
Simboli :   Temporali  Nebbia  Neve Forte  Precipitazioni Forti  Vento > 20 kt
SIGMETs :   Varie  Temporali  Ghiacco  Turbolenza  Onda orograficha  Ceneri Vulcaniche






- Altitudine del aeroporto : 309 ft
- Codice IATA : FNI


LFTW - Nîmes Garons

ULTIMO METAR :
  • 220000Z AUTO 32013KT 290V010 CAVOK 08/M02 Q1015

METARs OBSOLETI :
  • 212330Z AUTO 33013KT CAVOK 08/M02 Q1015
  • 212300Z AUTO 34019G29KT CAVOK 08/M02 Q1015
  • 212230Z AUTO 34018KT CAVOK 08/M02 Q1015
  • 212200Z AUTO 34018G31KT CAVOK 08/M02 Q1015
  • 212130Z AUTO 34021G32KT CAVOK 09/M03 Q1015
  • 212100Z AUTO 34018KT CAVOK 09/M03 Q1015
  • 212030Z AUTO 34017KT CAVOK 09/M02 Q1015
  • 212000Z AUTO 35012KT CAVOK 09/M02 Q1015
  • 211930Z AUTO 36013G24KT 330V030 CAVOK 09/M01 Q1015

TAF TAF LFTW
Valido dal 21 a 15 ore il 22 a 15 ore UTC


211400Z 2115/2215 36015G25KT CAVOK
PROB40 2115/2215 36020G35KT



MetMap, La meteo Aeronautica in un colpo d'occhio ! - Copyright ORBIFLY Dicembre 2007 - Disclaimer

ORBIFLY MET'MAP TEAM :

Programmazione e sviluppo : Alexandra Zaïnal
Concezione : Baudouin d'Aumeries
Supporto tecnico e logistico : Manuel Goepfert
Aiuto : Marc-Olivier Méhu
Aiuto per la traduzione : Arnaldo La Scala




FONTI E CREDITI :

   NOAA